createdAt,value
2022-09-18T00:00:11.132Z,24.00
2022-09-18T00:02:37.888Z,24.10
2022-09-18T00:05:05.399Z,24.10
2022-09-18T00:07:32.110Z,24.30
2022-09-18T00:09:58.781Z,24.40
2022-09-18T00:12:25.477Z,24.50
2022-09-18T00:14:52.194Z,24.60
2022-09-18T00:17:18.866Z,24.70
2022-09-18T00:19:45.523Z,24.70
2022-09-18T00:22:12.435Z,24.60
2022-09-18T00:24:39.113Z,24.60
2022-09-18T00:27:06.013Z,24.60
2022-09-18T00:29:32.680Z,24.60
2022-09-18T00:31:59.980Z,24.50
2022-09-18T00:34:26.665Z,24.40
2022-09-18T00:36:53.396Z,24.40
2022-09-18T00:39:20.068Z,24.40
2022-09-18T00:41:46.722Z,24.30
2022-09-18T00:44:22.815Z,24.30
2022-09-18T00:46:49.555Z,24.20
2022-09-18T00:49:20.935Z,24.20
2022-09-18T00:51:48.126Z,24.20
2022-09-18T00:54:19.681Z,24.20
2022-09-18T00:56:46.637Z,24.10
2022-09-18T00:59:14.223Z,24.10
2022-09-18T01:01:40.922Z,24.10
2022-09-18T01:04:14.066Z,24.00
2022-09-18T01:06:46.909Z,24.00
2022-09-18T01:09:28.025Z,24.00
2022-09-18T01:12:01.086Z,23.90
2022-09-18T01:14:37.375Z,24.00
2022-09-18T01:17:22.470Z,24.00
2022-09-18T01:20:07.832Z,24.00
2022-09-18T01:22:40.644Z,24.00
2022-09-18T01:25:26.256Z,24.00
2022-09-18T01:28:08.750Z,24.00
2022-09-18T01:30:36.167Z,23.90
2022-09-18T01:33:04.538Z,24.00
2022-09-18T01:35:41.554Z,24.10
2022-09-18T01:38:10.636Z,24.20
2022-09-18T01:41:00.560Z,24.40
2022-09-18T01:43:28.105Z,24.40
2022-09-18T01:46:01.524Z,24.60
2022-09-18T01:48:32.140Z,24.60
2022-09-18T01:51:00.840Z,24.60
2022-09-18T01:53:28.683Z,24.60
2022-09-18T01:55:56.821Z,24.50
2022-09-18T01:58:24.016Z,24.50
2022-09-18T02:00:51.787Z,24.40
2022-09-18T02:03:20.039Z,24.40
2022-09-18T02:05:48.347Z,24.30
2022-09-18T02:08:18.052Z,24.30
2022-09-18T02:11:01.377Z,24.30
2022-09-18T02:13:32.903Z,24.20
2022-09-18T02:16:00.736Z,24.10
2022-09-18T02:18:28.876Z,24.10
2022-09-18T02:20:55.558Z,24.10
2022-09-18T02:23:22.326Z,24.10
2022-09-18T02:25:53.254Z,24.10
2022-09-18T02:28:20.646Z,24.00
2022-09-18T02:30:47.400Z,24.10
2022-09-18T02:33:30.206Z,24.00
2022-09-18T02:36:15.808Z,24.00
2022-09-18T02:38:57.796Z,24.00
2022-09-18T02:41:29.588Z,24.00
2022-09-18T02:43:59.257Z,24.00
2022-09-18T02:46:34.216Z,23.90
2022-09-18T02:49:11.374Z,23.90
2022-09-18T02:51:44.274Z,24.00
2022-09-18T02:54:11.047Z,24.00
2022-09-18T02:56:56.396Z,23.90
2022-09-18T02:59:23.081Z,23.90
2022-09-18T03:01:49.934Z,24.00
2022-09-18T03:04:19.628Z,24.00
2022-09-18T03:06:46.489Z,24.10
2022-09-18T03:09:13.426Z,24.30
2022-09-18T03:11:40.091Z,24.40
2022-09-18T03:14:06.874Z,24.50
2022-09-18T03:16:33.728Z,24.60
2022-09-18T03:19:00.718Z,24.60
2022-09-18T03:21:27.535Z,24.50
2022-09-18T03:23:54.327Z,24.50
2022-09-18T03:26:21.047Z,24.50
2022-09-18T03:28:55.062Z,24.40
2022-09-18T03:31:22.176Z,24.40
2022-09-18T03:33:49.033Z,24.30
2022-09-18T03:36:15.714Z,24.30
2022-09-18T03:38:42.599Z,24.30
2022-09-18T03:41:09.604Z,24.20
2022-09-18T03:43:36.305Z,24.20
2022-09-18T03:46:04.303Z,24.10
2022-09-18T03:48:31.050Z,24.10
2022-09-18T03:50:57.785Z,24.10
2022-09-18T03:53:24.502Z,24.10
2022-09-18T03:55:51.191Z,24.10
2022-09-18T03:58:17.875Z,24.00
2022-09-18T04:00:45.201Z,24.00
2022-09-18T04:03:11.945Z,24.00
2022-09-18T04:05:38.689Z,24.00
2022-09-18T04:08:05.525Z,24.00
2022-09-18T04:10:32.717Z,24.00
2022-09-18T04:12:59.415Z,23.90
2022-09-18T04:15:26.094Z,23.90
2022-09-18T04:17:52.797Z,23.90
2022-09-18T04:20:19.444Z,23.90
2022-09-18T04:22:46.128Z,23.90
2022-09-18T04:25:12.775Z,23.90
2022-09-18T04:27:39.431Z,23.90
2022-09-18T04:30:06.327Z,23.80
2022-09-18T04:32:33.037Z,23.90
2022-09-18T04:35:00.519Z,23.90
2022-09-18T04:37:27.405Z,24.00
2022-09-18T04:39:54.116Z,24.10
2022-09-18T04:42:20.811Z,24.30
2022-09-18T04:44:47.520Z,24.40
2022-09-18T04:47:14.465Z,24.50
2022-09-18T04:49:41.441Z,24.50
2022-09-18T04:52:08.966Z,24.50
2022-09-18T04:54:35.667Z,24.40
2022-09-18T04:57:02.391Z,24.40
2022-09-18T04:59:29.108Z,24.40
2022-09-18T05:01:55.933Z,24.40
2022-09-18T05:04:22.656Z,24.30
2022-09-18T05:06:49.359Z,24.20
2022-09-18T05:09:16.059Z,24.20
2022-09-18T05:11:42.703Z,24.20
2022-09-18T05:14:09.480Z,24.10
2022-09-18T05:16:36.260Z,24.10
2022-09-18T05:19:02.996Z,24.10
2022-09-18T05:21:29.660Z,24.10
2022-09-18T05:23:56.485Z,24.00
2022-09-18T05:26:23.165Z,24.00
2022-09-18T05:28:50.404Z,24.00
2022-09-18T05:31:17.221Z,23.90
2022-09-18T05:33:44.114Z,24.00
2022-09-18T05:36:10.920Z,23.90
2022-09-18T05:38:37.637Z,23.90
2022-09-18T05:41:04.560Z,23.90
2022-09-18T05:43:31.288Z,23.90
2022-09-18T05:45:58.025Z,23.90
2022-09-18T05:48:24.750Z,23.90
2022-09-18T05:50:52.141Z,23.90
2022-09-18T05:53:19.676Z,23.80
2022-09-18T05:55:46.360Z,23.80
2022-09-18T05:58:16.913Z,23.80
2022-09-18T06:00:44.857Z,23.80
2022-09-18T06:03:12.368Z,23.80
2022-09-18T06:05:39.093Z,23.80
2022-09-18T06:08:06.656Z,23.90
2022-09-18T06:10:33.808Z,24.00
2022-09-18T06:13:01.684Z,24.10
2022-09-18T06:15:28.559Z,24.20
2022-09-18T06:17:55.193Z,24.30
2022-09-18T06:20:21.987Z,24.40
2022-09-18T06:22:48.694Z,24.50
2022-09-18T06:25:18.366Z,24.50
2022-09-18T06:27:45.191Z,24.50
2022-09-18T06:30:12.184Z,24.40
2022-09-18T06:32:38.832Z,24.40
2022-09-18T06:35:05.769Z,24.30
2022-09-18T06:37:32.416Z,24.20
2022-09-18T06:39:59.167Z,24.20
2022-09-18T06:42:25.906Z,24.20
2022-09-18T06:44:52.586Z,24.10
2022-09-18T06:47:19.267Z,24.10
2022-09-18T06:49:45.963Z,24.10
2022-09-18T06:52:12.676Z,24.00
2022-09-18T06:54:39.368Z,24.00
2022-09-18T06:57:09.783Z,24.00
2022-09-18T06:59:38.180Z,23.90
2022-09-18T07:02:05.402Z,23.90
2022-09-18T07:04:32.122Z,23.90
2022-09-18T07:06:58.834Z,23.90
2022-09-18T07:09:25.494Z,23.90
2022-09-18T07:11:52.407Z,23.90
2022-09-18T07:14:19.087Z,23.80
2022-09-18T07:16:45.739Z,23.80
2022-09-18T07:19:12.434Z,23.80
2022-09-18T07:21:40.090Z,23.80
2022-09-18T07:24:06.807Z,23.80
2022-09-18T07:26:33.476Z,23.80
2022-09-18T07:29:00.191Z,23.80
2022-09-18T07:31:26.945Z,23.80
2022-09-18T07:33:53.812Z,23.80
2022-09-18T07:36:20.554Z,23.80
2022-09-18T07:38:51.306Z,23.80
2022-09-18T07:41:18.246Z,23.80
2022-09-18T07:43:45.134Z,23.80
2022-09-18T07:46:11.827Z,23.90
2022-09-18T07:48:38.973Z,24.00
2022-09-18T07:51:05.827Z,24.20
2022-09-18T07:53:32.616Z,24.30
2022-09-18T07:55:59.348Z,24.40
2022-09-18T07:58:26.898Z,24.50
2022-09-18T08:00:53.572Z,24.40
2022-09-18T08:03:20.277Z,24.40
2022-09-18T08:05:47.143Z,24.40
2022-09-18T08:08:14.481Z,24.30
2022-09-18T08:10:41.880Z,24.30
2022-09-18T08:13:08.713Z,24.30
2022-09-18T08:15:37.134Z,24.20
2022-09-18T08:18:04.154Z,24.20
2022-09-18T08:20:30.859Z,24.10
2022-09-18T08:22:58.595Z,24.10
2022-09-18T08:25:27.450Z,24.10
2022-09-18T08:27:54.089Z,24.00
2022-09-18T08:30:20.988Z,24.00
2022-09-18T08:32:47.977Z,24.00
2022-09-18T08:35:16.730Z,24.00
2022-09-18T08:37:49.462Z,23.90
2022-09-18T08:40:16.717Z,23.90
2022-09-18T08:42:48.647Z,23.90
2022-09-18T08:45:18.387Z,23.80
2022-09-18T08:47:46.501Z,23.80
2022-09-18T08:50:15.562Z,23.80
2022-09-18T08:52:43.229Z,23.80
2022-09-18T08:55:36.538Z,23.80
2022-09-18T08:58:03.831Z,23.80
2022-09-18T09:00:49.388Z,23.80
2022-09-18T09:03:25.207Z,23.80
2022-09-18T09:05:55.688Z,23.80
2022-09-18T09:08:22.333Z,23.80
2022-09-18T09:10:58.089Z,23.70
2022-09-18T09:13:38.083Z,23.80
2022-09-18T09:16:10.836Z,23.70
2022-09-18T09:18:46.713Z,23.80
2022-09-18T09:21:23.718Z,24.00
2022-09-18T09:24:05.887Z,24.10
2022-09-18T09:26:32.613Z,24.20
2022-09-18T09:28:59.957Z,24.40
2022-09-18T09:31:33.072Z,24.40
2022-09-18T09:34:16.872Z,24.40
2022-09-18T09:36:43.914Z,24.40
2022-09-18T09:39:30.476Z,24.30
2022-09-18T09:42:03.562Z,24.30
2022-09-18T09:44:40.564Z,24.20
2022-09-18T09:47:13.623Z,24.20
2022-09-18T09:49:40.337Z,24.10
2022-09-18T09:52:15.825Z,24.10
2022-09-18T09:54:42.970Z,24.10
2022-09-18T09:57:21.983Z,24.00
2022-09-18T09:59:51.646Z,24.00
2022-09-18T10:02:40.985Z,24.00
2022-09-18T10:05:26.843Z,23.90
2022-09-18T10:07:56.748Z,23.90
2022-09-18T10:10:26.582Z,23.90
2022-09-18T10:13:09.095Z,23.90
2022-09-18T10:15:39.826Z,23.90
2022-09-18T10:18:11.462Z,23.80
2022-09-18T10:20:41.153Z,23.80
2022-09-18T10:23:20.439Z,23.80
2022-09-18T10:25:50.080Z,23.80
2022-09-18T10:28:16.865Z,23.90
2022-09-18T10:31:02.951Z,24.00
2022-09-18T10:33:32.858Z,24.10
2022-09-18T10:36:03.490Z,24.30
2022-09-18T10:38:32.284Z,24.40
2022-09-18T10:41:22.272Z,24.40
2022-09-18T10:43:53.293Z,24.40
2022-09-18T10:46:23.995Z,24.40
2022-09-18T10:48:57.655Z,24.30
2022-09-18T10:51:29.310Z,24.30
2022-09-18T10:54:14.272Z,24.30
2022-09-18T10:56:46.357Z,24.20
2022-09-18T10:59:44.827Z,24.20
2022-09-18T11:02:13.932Z,24.10
2022-09-18T11:04:40.652Z,24.10
2022-09-18T11:07:08.305Z,24.00
2022-09-18T11:09:39.033Z,24.00
2022-09-18T11:12:05.883Z,24.00
2022-09-18T11:14:37.904Z,23.90
2022-09-18T11:17:04.595Z,23.90
2022-09-18T11:19:35.143Z,23.90
2022-09-18T11:22:06.779Z,23.90
2022-09-18T11:24:34.908Z,23.90
2022-09-18T11:27:02.682Z,23.90
2022-09-18T11:29:33.451Z,24.00
2022-09-18T11:32:05.895Z,24.10
2022-09-18T11:34:39.113Z,24.20
2022-09-18T11:37:09.597Z,24.30
2022-09-18T11:39:37.510Z,24.40
2022-09-18T11:42:11.341Z,24.40
2022-09-18T11:44:41.312Z,24.40
2022-09-18T11:47:08.116Z,24.40
2022-09-18T11:49:45.472Z,24.40
2022-09-18T11:52:14.281Z,24.30
2022-09-18T11:54:51.976Z,24.30
2022-09-18T11:57:38.906Z,24.30
2022-09-18T12:00:08.239Z,24.20
2022-09-18T12:02:47.196Z,24.20
2022-09-18T12:05:33.463Z,24.10
2022-09-18T12:08:14.242Z,24.10
2022-09-18T12:10:56.431Z,24.10
2022-09-18T12:13:45.389Z,24.00
2022-09-18T12:16:29.108Z,24.00
2022-09-18T12:18:59.297Z,24.00
2022-09-18T12:21:37.608Z,24.00
2022-09-18T12:24:06.035Z,23.90
2022-09-18T12:26:51.385Z,23.90
2022-09-18T12:29:18.243Z,23.90
2022-09-18T12:31:52.566Z,24.00
2022-09-18T12:34:22.841Z,24.10
2022-09-18T12:36:49.511Z,24.20
2022-09-18T12:39:35.285Z,24.40
2022-09-18T12:42:07.508Z,24.50
2022-09-18T12:44:47.482Z,24.50
2022-09-18T12:47:32.507Z,24.50
2022-09-18T12:50:06.846Z,24.40
2022-09-18T12:52:55.234Z,24.40
2022-09-18T12:55:27.777Z,24.30
2022-09-18T12:57:57.596Z,24.30
2022-09-18T13:00:24.312Z,24.30
2022-09-18T13:03:11.564Z,24.20
2022-09-18T13:05:57.103Z,24.20
2022-09-18T13:08:50.344Z,24.20
2022-09-18T13:11:29.669Z,24.10
2022-09-18T13:14:01.144Z,24.00
2022-09-18T13:16:40.864Z,24.00
2022-09-18T13:19:13.883Z,24.00
2022-09-18T13:21:45.080Z,24.00
2022-09-18T13:24:13.698Z,24.00
2022-09-18T13:26:41.056Z,24.00
2022-09-18T13:29:34.370Z,23.90
2022-09-18T13:32:01.589Z,23.90
2022-09-18T13:34:28.704Z,24.00
2022-09-18T13:36:55.709Z,24.10
2022-09-18T13:39:23.831Z,24.30
2022-09-18T13:41:52.158Z,24.30
2022-09-18T13:44:29.200Z,24.50
2022-09-18T13:46:59.843Z,24.50
2022-09-18T13:49:29.064Z,24.50
2022-09-18T13:51:57.798Z,24.40
2022-09-18T13:54:27.204Z,24.40
2022-09-18T13:57:00.553Z,24.30
2022-09-18T13:59:44.207Z,24.30
2022-09-18T14:02:32.591Z,24.30
2022-09-18T14:04:59.574Z,24.30
2022-09-18T14:07:27.322Z,24.20
2022-09-18T14:10:17.985Z,24.10
2022-09-18T14:12:45.031Z,24.10
2022-09-18T14:15:23.308Z,24.00
2022-09-18T14:18:09.074Z,24.00
2022-09-18T14:20:36.271Z,23.90
2022-09-18T14:23:27.760Z,23.90
2022-09-18T14:25:54.856Z,23.90
2022-09-18T14:28:21.891Z,23.80
2022-09-18T14:31:08.889Z,23.80
2022-09-18T14:33:36.023Z,23.80
2022-09-18T14:36:04.912Z,23.90
2022-09-18T14:38:31.627Z,24.00
2022-09-18T14:40:59.938Z,24.10
2022-09-18T14:43:26.740Z,24.30
2022-09-18T14:45:53.503Z,24.40
2022-09-18T14:48:40.521Z,24.40
2022-09-18T14:51:14.129Z,24.40
2022-09-18T14:53:45.201Z,24.40
2022-09-18T14:56:13.990Z,24.30
2022-09-18T14:58:41.234Z,24.30
2022-09-18T15:01:08.831Z,24.30
2022-09-18T15:03:39.840Z,24.20
2022-09-18T15:06:08.519Z,24.20
2022-09-18T15:08:35.206Z,24.10
2022-09-18T15:11:01.918Z,24.10
2022-09-18T15:13:28.818Z,24.10
2022-09-18T15:16:00.925Z,24.00
2022-09-18T15:18:28.367Z,24.00
2022-09-18T15:20:55.955Z,24.00
2022-09-18T15:23:26.652Z,23.90
2022-09-18T15:25:56.375Z,23.90
2022-09-18T15:28:23.307Z,23.90
2022-09-18T15:30:51.863Z,23.80
2022-09-18T15:33:19.821Z,23.80
2022-09-18T15:35:47.486Z,23.90
2022-09-18T15:38:16.477Z,24.00
2022-09-18T15:40:43.808Z,24.10
2022-09-18T15:43:41.229Z,24.30
2022-09-18T15:46:28.439Z,24.30
2022-09-18T15:48:59.459Z,24.40
2022-09-18T15:51:27.465Z,24.40
2022-09-18T15:54:09.293Z,24.40
2022-09-18T15:56:36.964Z,24.30
2022-09-18T15:59:04.689Z,24.30
2022-09-18T16:01:35.529Z,24.30
2022-09-18T16:04:08.728Z,24.30
2022-09-18T16:06:39.005Z,24.20
2022-09-18T16:09:06.688Z,24.20
2022-09-18T16:11:34.522Z,24.10
2022-09-18T16:14:01.393Z,24.10
2022-09-18T16:16:28.793Z,24.00
2022-09-18T16:18:56.392Z,24.00
2022-09-18T16:21:24.383Z,24.00
2022-09-18T16:23:53.652Z,24.00
2022-09-18T16:26:24.849Z,23.90
2022-09-18T16:29:10.348Z,23.90
2022-09-18T16:31:37.651Z,23.90
2022-09-18T16:34:05.969Z,24.00
2022-09-18T16:36:39.879Z,23.90
2022-09-18T16:39:08.022Z,24.00
2022-09-18T16:41:35.151Z,24.00
2022-09-18T16:44:02.505Z,24.20
2022-09-18T16:46:31.108Z,24.30
2022-09-18T16:48:57.801Z,24.40
2022-09-18T16:51:24.532Z,24.50
2022-09-18T16:53:51.224Z,24.60
2022-09-18T16:56:18.230Z,24.60
2022-09-18T16:58:45.339Z,24.50
2022-09-18T17:01:12.507Z,24.50
2022-09-18T17:03:39.379Z,24.50
2022-09-18T17:06:06.293Z,24.40
2022-09-18T17:08:33.039Z,24.40
2022-09-18T17:10:59.797Z,24.30
2022-09-18T17:13:26.645Z,24.30
2022-09-18T17:15:53.406Z,24.30
2022-09-18T17:18:20.199Z,24.20
2022-09-18T17:20:46.932Z,24.10
2022-09-18T17:23:13.795Z,24.10
2022-09-18T17:25:40.654Z,24.10
2022-09-18T17:28:07.566Z,24.10
2022-09-18T17:30:34.350Z,24.00
2022-09-18T17:33:01.085Z,24.00
2022-09-18T17:35:28.014Z,24.00
2022-09-18T17:37:54.962Z,23.90
2022-09-18T17:40:21.744Z,23.90
2022-09-18T17:42:48.496Z,23.90
2022-09-18T17:45:15.224Z,23.90
2022-09-18T17:47:44.323Z,23.90
2022-09-18T17:50:11.791Z,23.90
2022-09-18T17:52:39.525Z,24.00
2022-09-18T17:55:06.997Z,24.10
2022-09-18T17:57:35.149Z,24.20
2022-09-18T18:00:02.055Z,24.40
2022-09-18T18:02:29.217Z,24.40
2022-09-18T18:04:56.806Z,24.40
2022-09-18T18:07:24.504Z,24.40
2022-09-18T18:09:51.393Z,24.30
2022-09-18T18:12:18.082Z,24.30
2022-09-18T18:14:44.788Z,24.30
2022-09-18T18:17:13.002Z,24.20
2022-09-18T18:19:39.715Z,24.20
2022-09-18T18:22:06.611Z,24.10
2022-09-18T18:24:33.303Z,24.10
2022-09-18T18:27:01.135Z,24.10
2022-09-18T18:29:27.991Z,24.10
2022-09-18T18:31:55.185Z,24.00
2022-09-18T18:34:22.310Z,24.00
2022-09-18T18:36:50.323Z,24.00
2022-09-18T18:39:17.201Z,24.00
2022-09-18T18:41:44.993Z,24.00
2022-09-18T18:44:12.248Z,23.90
2022-09-18T18:46:40.172Z,23.90
2022-09-18T18:49:09.457Z,23.80
2022-09-18T18:51:43.118Z,23.80
2022-09-18T18:54:10.109Z,23.80
2022-09-18T18:56:40.626Z,23.80
2022-09-18T18:59:08.932Z,23.80
2022-09-18T19:01:36.064Z,23.80
2022-09-18T19:04:07.040Z,23.90
2022-09-18T19:06:34.433Z,24.00
2022-09-18T19:09:01.725Z,24.10
2022-09-18T19:11:30.846Z,24.30
2022-09-18T19:13:57.591Z,24.30
2022-09-18T19:16:24.921Z,24.30
2022-09-18T19:19:01.002Z,24.30
2022-09-18T19:21:30.095Z,24.30
2022-09-18T19:24:01.350Z,24.30
2022-09-18T19:26:29.069Z,24.30
2022-09-18T19:28:56.684Z,24.20
2022-09-18T19:31:28.284Z,24.10
2022-09-18T19:33:55.594Z,24.10
2022-09-18T19:36:23.825Z,24.10
2022-09-18T19:38:54.958Z,24.00
2022-09-18T19:41:32.288Z,24.00
2022-09-18T19:44:00.716Z,24.00
2022-09-18T19:46:28.319Z,24.00
2022-09-18T19:48:55.561Z,23.90
2022-09-18T19:51:22.366Z,23.90
2022-09-18T19:53:49.090Z,23.90
2022-09-18T19:56:39.226Z,23.90
2022-09-18T19:59:02.801Z,23.80
2022-09-18T20:01:29.733Z,23.80
2022-09-18T20:03:56.919Z,23.80
2022-09-18T20:06:23.891Z,23.80
2022-09-18T20:08:51.545Z,23.80
2022-09-18T20:11:18.266Z,23.70
2022-09-18T20:13:48.579Z,23.70
2022-09-18T20:16:15.484Z,23.70
2022-09-18T20:18:42.833Z,23.70
2022-09-18T20:21:10.423Z,23.70
2022-09-18T20:23:37.174Z,23.70
2022-09-18T20:26:07.996Z,23.70
2022-09-18T20:28:35.816Z,23.70
2022-09-18T20:31:05.213Z,23.80
2022-09-18T20:33:31.929Z,24.00
2022-09-18T20:35:59.154Z,24.10
2022-09-18T20:38:32.758Z,24.10
2022-09-18T20:41:06.559Z,24.30
2022-09-18T20:43:34.147Z,24.20
2022-09-18T20:46:01.903Z,24.20
2022-09-18T20:48:32.541Z,24.20
2022-09-18T20:50:59.876Z,24.10
2022-09-18T20:53:28.105Z,24.10
2022-09-18T20:55:58.503Z,24.10
2022-09-18T20:58:25.811Z,24.00
2022-09-18T21:00:54.284Z,24.00
2022-09-18T21:03:21.153Z,24.00
2022-09-18T21:05:55.695Z,24.00
2022-09-18T21:08:29.881Z,23.90
2022-09-18T21:10:56.594Z,23.90
2022-09-18T21:13:23.351Z,23.90
2022-09-18T21:15:50.106Z,23.80
2022-09-18T21:18:16.941Z,23.80
2022-09-18T21:20:43.692Z,23.80
2022-09-18T21:23:29.548Z,23.80
2022-09-18T21:25:56.359Z,23.80
2022-09-18T21:28:23.088Z,23.70
2022-09-18T21:30:49.786Z,23.70
2022-09-18T21:33:16.567Z,23.70
2022-09-18T21:35:53.065Z,23.70
2022-09-18T21:38:19.760Z,23.70
2022-09-18T21:40:46.454Z,23.70
2022-09-18T21:43:15.581Z,23.60
2022-09-18T21:45:42.416Z,23.60
2022-09-18T21:48:09.250Z,23.60
2022-09-18T21:50:36.578Z,23.60
2022-09-18T21:53:03.261Z,23.60
2022-09-18T21:55:34.749Z,23.70
2022-09-18T21:58:01.436Z,23.80
2022-09-18T22:00:28.216Z,23.90
2022-09-18T22:02:54.997Z,24.00
2022-09-18T22:05:21.695Z,24.10
2022-09-18T22:07:48.374Z,24.20
2022-09-18T22:10:16.173Z,24.20
2022-09-18T22:12:42.842Z,24.10
2022-09-18T22:15:09.678Z,24.10
2022-09-18T22:17:36.381Z,24.10
2022-09-18T22:20:03.095Z,24.00
2022-09-18T22:22:30.138Z,23.90
2022-09-18T22:24:57.000Z,23.90
2022-09-18T22:27:24.641Z,23.80
2022-09-18T22:29:51.474Z,23.90
2022-09-18T22:32:18.286Z,23.90
2022-09-18T22:34:45.047Z,23.80
2022-09-18T22:37:11.747Z,23.80
2022-09-18T22:39:38.406Z,23.80
2022-09-18T22:42:05.429Z,23.80
2022-09-18T22:44:32.116Z,23.70
2022-09-18T22:46:58.816Z,23.70
2022-09-18T22:49:25.520Z,23.70
2022-09-18T22:51:52.335Z,23.70
2022-09-18T22:54:25.987Z,23.60
2022-09-18T22:56:52.924Z,23.60
2022-09-18T22:59:20.682Z,23.60
2022-09-18T23:01:51.135Z,23.60
2022-09-18T23:04:18.990Z,23.60
2022-09-18T23:06:46.201Z,23.60
2022-09-18T23:09:13.864Z,23.50
2022-09-18T23:11:40.991Z,23.50
2022-09-18T23:14:08.725Z,23.50
2022-09-18T23:16:35.939Z,23.50
2022-09-18T23:19:03.877Z,23.50
2022-09-18T23:21:34.153Z,23.50
2022-09-18T23:24:01.351Z,23.50
2022-09-18T23:26:31.880Z,23.60
2022-09-18T23:28:59.117Z,23.60
2022-09-18T23:31:27.492Z,23.80
2022-09-18T23:33:58.107Z,23.90
2022-09-18T23:36:25.711Z,24.00
2022-09-18T23:38:59.453Z,24.10
2022-09-18T23:41:26.316Z,24.00
2022-09-18T23:43:53.474Z,24.00
2022-09-18T23:46:20.614Z,24.00
2022-09-18T23:48:56.468Z,23.90
2022-09-18T23:51:23.198Z,23.90
2022-09-18T23:53:49.962Z,23.80
2022-09-18T23:56:16.711Z,23.80
2022-09-18T23:58:44.786Z,23.80
